Time;durP1;ratioP1;P1;durP2;ratioP2;P2;SDS_P1;SDS_P2;PMS_P1;PMS_P2;Temp;Humidity;BMP_temperature;BMP_pressure;BME280_temperature;BME280_humidity;BME280_pressure;Samples;Min_cycle;Max_cycle;Signal;HPM_P1;HPM_P2
2021/03/13 00:01:15;;;;;;;17.17;12.45;;;;;;;2.27;79.36;100037.56;1684544;83;21177;-42
2021/03/13 00:03:43;;;;;;;14.65;11.83;;;;;;;2.28;79.30;100040.16;1683118;84;21660;-42
2021/03/13 00:06:11;;;;;;;14.25;11.22;;;;;;;2.29;79.21;100043.22;1728778;81;21182;-42
2021/03/13 00:08:39;;;;;;;15.15;10.70;;;;;;;2.31;79.20;100053.67;1718533;81;22310;-42
2021/03/13 00:11:07;;;;;;;14.95;10.28;;;;;;;2.32;79.15;100041.80;1717699;82;21145;-44
2021/03/13 00:13:35;;;;;;;13.93;10.25;;;;;;;2.32;79.14;100043.11;1702234;82;21212;-43
2021/03/13 00:18:40;;;;;;;13.60;10.75;;;;;;;2.38;79.13;100036.78;1793420;79;23131;-38
2021/03/13 00:21:08;;;;;;;12.28;9.60;;;;;;;2.35;79.09;100036.43;1773520;80;21117;-38
2021/03/13 00:23:35;;;;;;;13.45;10.50;;;;;;;2.36;79.07;100033.34;1771755;79;21118;-38
2021/03/13 00:26:03;;;;;;;17.62;12.18;;;;;;;2.38;78.99;100035.47;1771572;80;21146;-38
2021/03/13 00:28:31;;;;;;;15.58;12.07;;;;;;;2.39;78.98;100038.50;1777665;79;21101;-39
2021/03/13 00:30:59;;;;;;;17.77;13.55;;;;;;;2.41;78.99;100038.46;1779584;80;21544;-38
2021/03/13 00:33:30;;;;;;;19.85;15.55;;;;;;;2.41;79.04;100041.95;1766722;79;21148;-42
2021/03/13 00:35:56;;;;;;;21.00;15.72;;;;;;;2.41;79.04;100034.51;1732786;81;21662;-43
2021/03/13 00:38:24;;;;;;;21.80;15.88;;;;;;;2.42;79.06;100037.53;1719939;81;21148;-40
2021/03/13 00:40:52;;;;;;;25.88;15.55;;;;;;;2.43;79.04;100036.19;1743125;81;21126;-41
2021/03/13 00:43:19;;;;;;;25.12;17.95;;;;;;;2.45;79.01;100040.09;1716360;82;21136;-43
2021/03/13 00:45:47;;;;;;;26.12;17.17;;;;;;;2.45;78.97;100043.58;1718086;82;21154;-42
2021/03/13 00:48:15;;;;;;;28.87;17.27;;;;;;;2.46;78.97;100043.98;1719252;82;21597;-41
2021/03/13 00:50:44;;;;;;;25.30;17.55;;;;;;;2.47;78.99;100041.77;1702980;82;21185;-42
2021/03/13 00:53:13;;;;;;;27.00;17.82;;;;;;;2.48;78.96;100036.05;1697915;83;21145;-40
2021/03/13 00:55:42;;;;;;;22.48;16.30;;;;;;;2.49;78.97;100039.06;1695738;83;21156;-42
2021/03/13 00:58:10;;;;;;;28.25;17.07;;;;;;;2.50;78.92;100030.28;1700554;83;21149;-41
2021/03/13 01:00:47;;;;;;;27.30;21.20;;;;;;;2.56;78.88;100026.97;1798554;77;28379;-42
2021/03/13 01:03:15;;;;;;;21.93;16.20;;;;;;;2.52;78.88;100037.64;1774166;78;21179;-39
2021/03/13 01:05:43;;;;;;;19.48;14.40;;;;;;;2.63;78.80;100038.63;1727218;81;21962;-40
2021/03/13 01:08:12;;;;;;;17.02;13.72;;;;;;;2.65;78.71;100040.30;1711488;82;21128;-40
2021/03/13 01:10:42;;;;;;;22.40;14.38;;;;;;;2.65;78.66;100037.67;1704406;82;21146;-42
2021/03/13 01:13:11;;;;;;;15.88;12.23;;;;;;;2.66;78.56;100045.11;1725646;81;21869;-43
2021/03/13 01:15:40;;;;;;;25.25;19.52;;;;;;;2.66;78.53;100042.02;1704229;81;21178;-43
2021/03/13 01:18:10;;;;;;;16.40;13.38;;;;;;;2.66;78.49;100045.96;1712368;81;21155;-41
2021/03/13 01:20:38;;;;;;;19.10;14.20;;;;;;;2.66;78.51;100046.42;1708184;83;21143;-41
2021/03/13 01:23:06;;;;;;;19.27;13.93;;;;;;;2.64;78.52;100049.56;1736532;80;21146;-41
2021/03/13 01:25:34;;;;;;;18.00;14.03;;;;;;;2.63;78.48;100046.07;1709107;82;21552;-41
2021/03/13 01:28:02;;;;;;;17.65;13.40;;;;;;;2.63;78.53;100051.80;1707138;81;21138;-42
2021/03/13 01:30:30;;;;;;;19.00;13.75;;;;;;;2.64;78.55;100066.67;1723255;82;21616;-41
2021/03/13 01:32:59;;;;;;;18.10;13.85;;;;;;;2.63;78.60;100064.50;1718193;83;21099;-43
2021/03/13 01:35:27;;;;;;;18.17;13.60;;;;;;;2.65;78.67;100071.05;1713942;81;21143;-43
2021/03/13 01:37:55;;;;;;;20.35;14.58;;;;;;;2.67;78.67;100079.73;1715664;81;21161;-41
2021/03/13 01:40:24;;;;;;;17.57;13.90;;;;;;;2.68;78.70;100081.47;1722700;81;21142;-41
2021/03/13 01:42:52;;;;;;;18.92;14.28;;;;;;;2.69;78.73;100087.98;1710412;81;21161;-40
2021/03/13 01:45:23;;;;;;;17.75;13.65;;;;;;;2.71;78.76;100089.27;1717209;81;21583;-39
2021/03/13 01:47:54;;;;;;;15.50;12.98;;;;;;;2.74;78.72;100099.23;1718404;81;21174;-40
2021/03/13 01:50:23;;;;;;;18.00;13.75;;;;;;;2.75;78.72;100095.70;1722736;81;21162;-39
2021/03/13 01:52:52;;;;;;;18.23;14.65;;;;;;;2.79;78.74;100095.14;1726517;81;21161;-40
2021/03/13 01:55:21;;;;;;;15.80;12.53;;;;;;;2.80;78.69;100100.83;1700848;83;21173;-40
2021/03/13 01:57:51;;;;;;;16.05;14.18;;;;;;;2.82;78.57;100100.30;1703691;83;21340;-40
2021/03/13 02:00:22;;;;;;;15.63;12.47;;;;;;;2.83;78.54;100104.67;1685284;83;21152;-40
2021/03/13 02:02:54;;;;;;;18.00;13.78;;;;;;;2.86;78.51;100108.98;1679417;83;21646;-40
2021/03/13 02:05:26;;;;;;;17.23;13.72;;;;;;;2.87;78.50;100112.01;1686374;83;21563;-41
2021/03/13 02:08:49;;;;;;;16.82;13.05;;;;;;;2.88;78.46;100113.75;1685460;83;21131;-40
2021/03/13 02:12:12;;;;;;;17.17;13.03;;;;;;;2.91;78.43;100121.55;1685551;83;21116;-39
2021/03/13 02:15:02;;;;;;;16.70;13.58;;;;;;;2.91;78.38;100126.35;1580989;89;21192;-40
2021/03/13 02:17:41;;;;;;;18.73;16.60;;;;;;;2.95;78.42;100117.45;1786420;78;28300;-38
2021/03/13 02:20:49;;;;;;;17.40;14.47;;;;;;;2.92;78.39;100112.25;1696462;82;21110;-39
2021/03/13 02:23:20;;;;;;;16.17;12.80;;;;;;;3.01;78.32;100118.55;1736649;81;21611;-39
2021/03/13 02:26:32;;;;;;;15.35;13.25;;;;;;;3.04;78.22;100113.63;1721598;81;21186;-39
2021/03/13 02:29:31;;;;;;;15.10;12.85;;;;;;;3.06;78.24;100125.45;1621817;86;21771;-39
2021/03/13 02:32:03;;;;;;;16.73;13.48;;;;;;;3.05;78.20;100119.33;1693685;83;21158;-39
2021/03/13 02:34:34;;;;;;;13.90;12.40;;;;;;;3.03;78.20;100126.42;1697564;82;21797;-41
2021/03/13 02:37:18;;;;;;;16.48;12.93;;;;;;;3.07;78.16;100133.75;1803765;79;23024;-43
2021/03/13 02:39:47;;;;;;;17.45;13.95;;;;;;;3.01;78.14;100133.50;1772659;78;21097;-43
2021/03/13 02:42:15;;;;;;;40.35;32.65;;;;;;;2.99;78.14;100128.73;1717014;80;21156;-40
2021/03/13 02:44:43;;;;;;;27.82;20.68;;;;;;;2.98;78.17;100130.98;1777617;80;21510;-41
2021/03/13 02:47:13;;;;;;;20.37;16.07;;;;;;;2.97;78.19;100122.65;1765361;79;21550;-42
2021/03/13 02:49:45;;;;;;;17.60;14.10;;;;;;;2.97;78.13;100123.97;1766066;78;21158;-41
2021/03/13 02:52:21;;;;;;;17.62;14.00;;;;;;;2.99;78.16;100124.78;1800195;79;22928;-40
2021/03/13 02:54:51;;;;;;;16.95;13.98;;;;;;;2.94;78.14;100120.12;1782566;79;21148;-40
2021/03/13 02:57:19;;;;;;;17.10;13.68;;;;;;;2.93;78.17;100126.31;1787297;79;21133;-41
2021/03/13 02:59:47;;;;;;;15.32;13.22;;;;;;;2.93;78.18;100122.36;1757457;80;21097;-41
2021/03/13 03:02:16;;;;;;;17.30;12.53;;;;;;;2.94;78.14;100126.24;1770334;80;21137;-41
2021/03/13 03:04:44;;;;;;;19.02;14.25;;;;;;;2.94;78.12;100127.56;1781328;79;21098;-41
2021/03/13 03:07:11;;;;;;;16.93;12.73;;;;;;;2.94;78.05;100130.20;1777421;80;21581;-40
2021/03/13 03:09:39;;;;;;;16.60;13.22;;;;;;;2.95;78.02;100141.16;1728353;81;21161;-40
2021/03/13 03:12:08;;;;;;;16.97;13.48;;;;;;;2.94;77.96;100142.52;1723169;83;21157;-43
2021/03/13 03:14:40;;;;;;;17.98;13.95;;;;;;;2.93;77.98;100140.80;1692308;83;21169;-44
2021/03/13 03:17:08;;;;;;;16.75;13.80;;;;;;;2.93;78.02;100137.70;1671508;82;21143;-43
2021/03/13 03:19:40;;;;;;;17.23;13.53;;;;;;;2.93;78.02;100137.70;1731424;82;21569;-43
2021/03/13 03:22:10;;;;;;;19.48;13.32;;;;;;;2.94;77.96;100149.95;1699322;82;21279;-45
2021/03/13 03:24:38;;;;;;;18.20;13.15;;;;;;;2.94;77.88;100152.59;1735349;82;21180;-40
2021/03/13 03:27:07;;;;;;;17.35;13.55;;;;;;;2.93;77.83;100153.52;1729446;82;21192;-42
2021/03/13 03:29:37;;;;;;;15.68;13.40;;;;;;;2.93;77.87;100151.34;1731004;82;21152;-42
2021/03/13 03:32:06;;;;;;;19.60;14.35;;;;;;;2.93;77.91;100151.34;1727503;82;21118;-42
2021/03/13 03:34:36;;;;;;;18.05;14.30;;;;;;;2.94;77.97;100149.09;1696578;82;21597;-44
2021/03/13 03:37:05;;;;;;;19.77;16.02;;;;;;;2.96;78.08;100143.33;1725045;82;21141;-44
2021/03/13 03:39:34;;;;;;;22.93;16.27;;;;;;;2.96;78.16;100142.88;1735008;82;21737;-40
2021/03/13 03:42:03;;;;;;;19.07;14.40;;;;;;;2.98;78.22;100144.15;1730524;82;21582;-41
2021/03/13 03:44:37;;;;;;;19.95;14.90;;;;;;;2.97;78.34;100146.36;1729161;82;21890;-43
2021/03/13 03:47:07;;;;;;;19.40;14.95;;;;;;;2.98;78.41;100146.32;1729548;82;21137;-41
2021/03/13 03:49:39;;;;;;;20.27;16.15;;;;;;;2.98;78.40;100146.32;1722187;81;21740;-41
2021/03/13 03:52:54;;;;;;;20.40;17.15;;;;;;;2.99;78.23;100148.03;1876482;74;28225;-41
2021/03/13 03:55:24;;;;;;;19.73;15.85;;;;;;;2.92;78.32;100146.50;1854927;75;21120;-40
2021/03/13 03:57:52;;;;;;;17.40;13.65;;;;;;;2.98;78.25;100145.47;1793422;78;21208;-41
2021/03/13 04:00:21;;;;;;;17.02;14.35;;;;;;;2.98;78.22;100152.05;1798935;78;21822;-44
2021/03/13 04:02:51;;;;;;;23.20;16.93;;;;;;;2.97;78.19;100160.42;1803349;78;21542;-45
2021/03/13 04:05:19;;;;;;;33.83;25.55;;;;;;;2.95;78.14;100164.87;1795001;78;21355;-44
2021/03/13 04:07:47;;;;;;;25.70;18.00;;;;;;;2.96;78.18;100170.99;1785778;78;21271;-40
2021/03/13 04:10:15;;;;;;;17.95;14.38;;;;;;;2.93;78.25;100177.22;1767213;80;21184;-41
2021/03/13 04:12:43;;;;;;;22.77;16.42;;;;;;;2.91;78.33;100176.86;1780313;79;21114;-41
2021/03/13 04:15:12;;;;;;;22.90;15.03;;;;;;;2.89;78.39;100179.53;1771652;79;21562;-40
2021/03/13 04:17:40;;;;;;;20.20;15.38;;;;;;;2.88;78.44;100183.09;1757744;79;21315;-39
2021/03/13 04:20:09;;;;;;;21.90;15.28;;;;;;;2.87;78.43;100188.39;1776834;79;21145;-40
2021/03/13 04:22:38;;;;;;;19.98;16.45;;;;;;;2.86;78.58;100179.64;1775987;79;21153;-44
2021/03/13 04:25:07;;;;;;;21.45;14.65;;;;;;;2.88;78.84;100175.65;1788169;78;21130;-40
2021/03/13 04:27:44;;;;;;;16.85;13.13;;;;;;;2.89;79.19;100178.22;1804841;78;21486;-39
2021/03/13 04:30:06;;;;;;;16.67;12.65;;;;;;;2.91;79.37;100180.35;1775090;78;21204;-40
2021/03/13 04:32:34;;;;;;;17.80;14.13;;;;;;;2.94;79.48;100177.61;1795703;78;21156;-39
2021/03/13 04:35:02;;;;;;;17.00;13.98;;;;;;;2.97;79.57;100178.86;1803266;78;21152;-41
2021/03/13 04:37:30;;;;;;;14.68;11.65;;;;;;;3.01;79.58;100173.02;1798134;78;21148;-39
2021/03/13 04:39:58;;;;;;;14.93;11.75;;;;;;;3.03;79.72;100170.74;1796758;78;21113;-39
2021/03/13 04:42:26;;;;;;;19.00;12.65;;;;;;;3.07;79.76;100167.54;1799565;78;21148;-40
2021/03/13 04:44:54;;;;;;;19.15;12.10;;;;;;;3.10;79.83;100175.80;1783386;78;21292;-38
2021/03/13 04:47:21;;;;;;;17.30;12.80;;;;;;;3.13;79.84;100180.53;1803755;78;21157;-38
2021/03/13 04:49:49;;;;;;;18.98;13.08;;;;;;;3.16;79.85;100178.25;1774184;78;21664;-40
2021/03/13 04:52:17;;;;;;;15.13;11.93;;;;;;;3.17;79.87;100174.70;1785697;78;21156;-40
2021/03/13 04:54:47;;;;;;;18.37;13.28;;;;;;;3.19;79.95;100188.22;1743458;79;21137;-39
2021/03/13 04:57:15;;;;;;;17.77;13.32;;;;;;;3.22;79.96;100193.85;1782035;79;21192;-41
2021/03/13 04:59:43;;;;;;;15.72;12.13;;;;;;;3.24;80.00;100195.98;1808417;78;21601;-42
2021/03/13 05:02:11;;;;;;;18.90;15.83;;;;;;;3.25;80.03;100197.27;1791046;78;21676;-42
2021/03/13 05:04:39;;;;;;;21.48;17.12;;;;;;;3.30;80.01;100206.34;1802479;78;21195;-40
2021/03/13 05:07:06;;;;;;;16.50;13.28;;;;;;;3.33;80.01;100201.43;1809409;78;21229;-40
2021/03/13 05:09:34;;;;;;;15.35;12.18;;;;;;;3.34;80.00;100210.59;1802086;78;21125;-41
2021/03/13 05:12:02;;;;;;;17.35;12.05;;;;;;;3.35;79.99;100212.33;1760436;79;21131;-40
2021/03/13 05:14:30;;;;;;;17.17;13.08;;;;;;;3.38;79.94;100217.95;1774898;80;21169;-42
2021/03/13 05:16:58;;;;;;;13.38;11.03;;;;;;;3.38;79.93;100217.95;1751174;80;21148;-42
2021/03/13 05:19:25;;;;;;;14.90;11.68;;;;;;;3.39;79.91;100215.25;1786085;79;21144;-40
2021/03/13 05:21:54;;;;;;;18.87;13.72;;;;;;;3.42;79.90;100221.73;1781366;79;21164;-40
2021/03/13 05:24:21;;;;;;;14.35;11.80;;;;;;;3.42;79.91;100228.32;1778821;79;21177;-39
2021/03/13 05:26:50;;;;;;;16.60;11.97;;;;;;;3.44;79.94;100230.92;1769449;79;21241;-37
2021/03/13 05:29:17;;;;;;;16.97;11.63;;;;;;;3.45;79.98;100233.95;1778264;79;21183;-37
2021/03/13 05:31:45;;;;;;;14.80;11.85;;;;;;;3.47;80.01;100236.94;1781660;79;21636;-37
2021/03/13 05:34:12;;;;;;;16.93;12.23;;;;;;;3.51;80.01;100240.82;1769344;80;21165;-37
2021/03/13 05:36:40;;;;;;;16.87;11.00;;;;;;;3.53;80.00;100241.61;1772412;80;21185;-39
2021/03/13 05:39:08;;;;;;;15.60;12.80;;;;;;;3.57;79.99;100249.37;1776361;80;21137;-40
2021/03/13 05:41:38;;;;;;;18.10;12.25;;;;;;;3.58;79.91;100248.48;1799143;79;21154;-40
2021/03/13 05:44:06;;;;;;;15.03;12.15;;;;;;;3.60;79.86;100256.31;1758325;80;21164;-39
2021/03/13 05:46:36;;;;;;;17.15;12.85;;;;;;;3.61;79.92;100258.91;1765354;80;21181;-41
2021/03/13 05:49:07;;;;;;;14.65;11.88;;;;;;;3.62;79.96;100254.50;1762302;79;21651;-40
2021/03/13 05:51:44;;;;;;;15.80;11.25;;;;;;;3.63;79.95;100262.83;1758597;80;21170;-40
2021/03/13 05:54:14;;;;;;;17.80;12.50;;;;;;;3.67;79.95;100272.34;1741780;80;21676;-41
2021/03/13 05:56:42;;;;;;;16.15;12.50;;;;;;;3.67;79.96;100273.20;1783208;79;21470;-44
2021/03/13 05:59:13;;;;;;;18.30;13.58;;;;;;;3.71;79.97;100274.44;1748058;80;21197;-46
2021/03/13 06:01:41;;;;;;;;;;;;;;;3.74;79.97;100279.14;1777582;80;21157;-45
2021/03/13 06:04:10;;;;;;;16.52;12.13;;;;;;;3.79;80.08;100282.48;1788412;78;20148;-51
2021/03/13 06:06:39;;;;;;;16.35;12.68;;;;;;;3.85;79.98;100291.50;1802664;79;21204;-47
2021/03/13 06:09:09;;;;;;;15.95;11.73;;;;;;;3.89;79.90;100290.96;1803876;78;21602;-44
2021/03/13 06:11:36;;;;;;;16.42;11.90;;;;;;;3.95;79.76;100301.30;1796207;78;21181;-42
2021/03/13 06:14:04;;;;;;;15.85;12.28;;;;;;;4.00;79.68;100299.36;1799200;78;21997;-45
2021/03/13 06:16:32;;;;;;;19.42;13.43;;;;;;;4.04;79.60;100305.41;1757308;80;21145;-45
2021/03/13 06:19:00;;;;;;;20.37;13.50;;;;;;;4.07;79.54;100306.16;1792274;78;21165;-49
2021/03/13 06:21:39;;;;;;;17.10;11.88;;;;;;;4.10;79.42;100310.47;1800036;78;21153;-42
2021/03/13 06:24:21;;;;;;;17.25;13.08;;;;;;;4.12;79.35;100316.09;1797759;78;21153;-44
2021/03/13 06:26:59;;;;;;;18.07;12.73;;;;;;;4.18;79.28;100314.16;1763328;80;21197;-42
2021/03/13 06:29:32;;;;;;;15.93;12.80;;;;;;;4.24;79.20;100315.28;1762720;80;21169;-49
2021/03/13 06:32:11;;;;;;;18.32;12.93;;;;;;;4.27;79.15;100311.20;1749347;80;21186;-51
2021/03/13 06:34:41;;;;;;;20.65;13.32;;;;;;;4.33;79.14;100318.90;1771334;79;21597;-42
2021/03/13 06:37:27;;;;;;;22.55;14.90;;;;;;;4.38;79.12;100324.02;1776155;80;21137;-46
2021/03/13 06:39:56;;;;;;;20.77;13.85;;;;;;;4.42;79.07;100322.55;1753269;80;21171;-41
2021/03/13 06:42:27;;;;;;;19.42;12.65;;;;;;;4.47;79.02;100321.06;1745579;80;21138;-42
2021/03/13 06:45:00;;;;;;;16.70;12.50;;;;;;;4.54;78.95;100330.50;1769123;80;21193;-43
2021/03/13 06:47:39;;;;;;;17.60;12.68;;;;;;;4.61;78.89;100327.16;1774315;79;21179;-42
2021/03/13 06:50:14;;;;;;;18.00;12.20;;;;;;;4.67;78.88;100325.63;1749201;80;21264;-41
2021/03/13 06:52:45;;;;;;;15.20;12.40;;;;;;;4.74;79.01;100322.70;1785621;79;21140;-43
2021/03/13 06:55:26;;;;;;;14.85;12.13;;;;;;;4.82;78.96;100324.20;1781482;79;21160;-42
2021/03/13 06:58:08;;;;;;;16.25;11.65;;;;;;;4.89;78.78;100326.99;1766918;79;21138;-42
2021/03/13 07:00:38;;;;;;;13.95;10.98;;;;;;;4.94;78.66;100321.11;1781900;78;21153;-42
2021/03/13 07:03:15;;;;;;;16.23;11.83;;;;;;;4.99;78.53;100320.48;1782259;78;21120;-42
2021/03/13 07:05:44;;;;;;;16.55;13.53;;;;;;;5.07;78.38;100322.83;1788443;78;21706;-42
2021/03/13 07:08:24;;;;;;;16.57;12.68;;;;;;;5.12;78.27;100315.58;1767342;80;21569;-44
2021/03/13 07:11:03;;;;;;;13.00;10.93;;;;;;;5.19;78.18;100317.03;1772517;80;21142;-40
2021/03/13 07:13:39;;;;;;;14.95;10.85;;;;;;;5.26;77.94;100325.14;1760585;79;21157;-46
2021/03/13 07:16:36;;;;;;;14.05;11.30;;;;;;;5.28;77.92;100321.13;1737684;80;21173;-42
2021/03/13 07:19:12;;;;;;;12.07;10.53;;;;;;;5.36;77.70;100319.89;1799563;78;23572;-45
2021/03/13 07:21:42;;;;;;;13.98;10.75;;;;;;;5.37;77.52;100319.45;1778776;80;21119;-44
2021/03/13 07:24:13;;;;;;;15.00;11.60;;;;;;;5.41;77.35;100319.70;1779972;80;21184;-44
2021/03/13 07:26:43;;;;;;;;;;;;;;;5.45;77.23;100320.00;1781133;79;21129;-45
2021/03/13 07:29:17;;;;;;;15.63;11.20;;;;;;;5.49;77.03;100321.58;1774341;79;20210;-44
2021/03/13 07:31:56;;;;;;;14.07;10.95;;;;;;;5.54;76.96;100324.05;1751786;81;21173;-43
2021/03/13 07:34:28;;;;;;;13.65;11.30;;;;;;;5.60;76.97;100324.67;1729852;81;21173;-46
2021/03/13 07:36:59;;;;;;;14.30;11.12;;;;;;;5.68;76.94;100324.83;1749850;81;21252;-42
2021/03/13 07:39:37;;;;;;;13.45;9.95;;;;;;;5.74;76.64;100324.56;1742247;81;21125;-44
2021/03/13 07:42:17;;;;;;;14.65;10.58;;;;;;;5.77;76.43;100326.64;1744108;81;21268;-45
2021/03/13 07:44:46;;;;;;;15.35;11.93;;;;;;;5.82;76.28;100322.45;1709637;82;21166;-46
2021/03/13 07:47:18;;;;;;;18.65;13.80;;;;;;;5.88;76.13;100333.28;1724945;82;21597;-40
2021/03/13 07:49:47;;;;;;;19.67;12.93;;;;;;;5.93;75.83;100326.01;1710641;82;21155;-45
2021/03/13 07:52:20;;;;;;;12.82;11.38;;;;;;;5.97;75.67;100325.85;1686103;84;21570;-46
2021/03/13 07:54:50;;;;;;;11.70;9.93;;;;;;;6.01;75.63;100327.89;1698527;83;21581;-42
2021/03/13 07:57:19;;;;;;;12.78;10.15;;;;;;;6.04;75.62;100329.08;1697625;83;21162;-46
2021/03/13 07:59:52;;;;;;;12.43;9.83;;;;;;;6.07;75.53;100331.59;1703125;83;21146;-47
2021/03/13 08:02:35;;;;;;;11.00;9.40;;;;;;;6.12;75.27;100332.73;1698500;83;21537;-46
2021/03/13 08:05:17;;;;;;;12.63;10.25;;;;;;;6.15;74.93;100328.19;1699495;83;21156;-46
2021/03/13 08:07:57;;;;;;;13.40;10.10;;;;;;;6.19;74.63;100324.92;1694637;83;21668;-47
2021/03/13 08:10:45;;;;;;;13.10;10.38;;;;;;;6.21;74.27;100330.55;1695547;83;21154;-44
2021/03/13 08:13:35;;;;;;;12.37;10.05;;;;;;;6.22;73.83;100330.09;1696948;83;21184;-41
2021/03/13 08:16:10;;;;;;;11.03;9.88;;;;;;;6.19;73.83;100328.90;1722336;81;21774;-41
2021/03/13 08:18:57;;;;;;;12.95;9.68;;;;;;;6.20;73.72;100326.64;1710566;82;21504;-43
2021/03/13 08:21:36;;;;;;;12.47;10.40;;;;;;;6.22;73.51;100329.65;1707850;83;21150;-42
2021/03/13 08:24:05;;;;;;;11.60;9.45;;;;;;;6.27;73.19;100330.31;1739239;81;21165;-43
2021/03/13 08:26:42;;;;;;;12.65;9.75;;;;;;;6.29;73.10;100332.41;1738911;81;21133;-41
2021/03/13 08:29:13;;;;;;;12.30;10.93;;;;;;;6.32;73.12;100331.41;1712851;82;21139;-41
2021/03/13 08:31:43;;;;;;;;;;;;;;;6.38;73.11;100333.81;1740830;81;21134;-45
2021/03/13 08:34:19;;;;;;;13.80;10.43;;;;;;;6.45;72.97;100329.97;1741872;81;20458;-46
2021/03/13 08:36:51;;;;;;;11.73;9.70;;;;;;;6.52;72.65;100331.02;1708754;83;21418;-43
2021/03/13 08:39:21;;;;;;;11.70;10.18;;;;;;;6.55;72.13;100333.52;1744391;81;21476;-41
2021/03/13 08:41:54;;;;;;;13.08;10.28;;;;;;;6.54;71.80;100337.97;1736520;81;21133;-44
2021/03/13 08:44:33;;;;;;;13.28;10.60;;;;;;;6.53;71.49;100338.02;1738355;81;21175;-43
2021/03/13 08:47:08;;;;;;;12.25;10.13;;;;;;;6.49;71.32;100347.44;1745604;80;21118;-43
2021/03/13 08:49:44;;;;;;;12.53;10.38;;;;;;;6.48;71.11;100340.90;1750371;81;21103;-42
2021/03/13 08:52:21;;;;;;;14.13;10.60;;;;;;;6.47;70.98;100339.16;1706824;83;21166;-43
2021/03/13 08:54:50;;;;;;;12.60;10.53;;;;;;;6.47;70.73;100336.51;1744245;81;21146;-44
2021/03/13 08:57:28;;;;;;;13.13;10.35;;;;;;;6.43;70.71;100343.74;1746711;81;21148;-43
2021/03/13 08:59:59;;;;;;;12.63;9.70;;;;;;;6.41;70.60;100348.23;1743651;81;21149;-43
2021/03/13 09:02:32;;;;;;;11.83;10.15;;;;;;;6.42;70.53;100351.74;1740615;81;21147;-43
2021/03/13 09:05:15;;;;;;;18.57;14.50;;;;;;;6.41;70.40;100356.66;1744432;81;21142;-44
2021/03/13 09:07:48;;;;;;;16.90;13.38;;;;;;;6.39;70.20;100353.20;1741142;80;21434;-41
2021/03/13 09:10:17;;;;;;;14.30;10.90;;;;;;;6.33;70.24;100354.34;1745477;81;21198;-43
2021/03/13 09:12:46;;;;;;;13.48;11.05;;;;;;;6.32;70.33;100350.42;1706569;82;21185;-40
2021/03/13 09:15:16;;;;;;;14.45;11.43;;;;;;;6.29;70.35;100350.94;1744642;81;21134;-40
2021/03/13 09:17:44;;;;;;;14.47;11.30;;;;;;;6.27;70.29;100350.17;1740771;80;21169;-41
2021/03/13 09:20:16;;;;;;;13.20;10.75;;;;;;;6.24;70.28;100347.62;1725436;82;21549;-43
2021/03/13 09:22:46;;;;;;;12.58;10.60;;;;;;;6.23;70.39;100349.04;1718882;82;21157;-40
2021/03/13 09:25:20;;;;;;;14.93;11.43;;;;;;;6.27;70.43;100351.50;1712812;82;21563;-41
2021/03/13 09:27:53;;;;;;;14.25;10.75;;;;;;;6.29;70.37;100348.30;1716702;82;21631;-43
2021/03/13 09:30:23;;;;;;;13.53;11.05;;;;;;;6.29;70.22;100348.30;1710683;82;21154;-46
2021/03/13 09:32:52;;;;;;;14.15;10.60;;;;;;;6.30;70.31;100346.53;1717069;82;21118;-39
2021/03/13 09:35:22;;;;;;;17.85;12.07;;;;;;;6.33;70.24;100347.72;1721506;82;21146;-42
2021/03/13 09:37:50;;;;;;;13.78;11.38;;;;;;;6.35;70.35;100343.22;1719007;82;21151;-41
2021/03/13 09:40:25;;;;;;;14.15;11.25;;;;;;;6.37;70.47;100353.26;1716463;82;21174;-41
2021/03/13 09:42:53;;;;;;;14.73;10.95;;;;;;;6.39;70.40;100350.09;1713285;82;21137;-42
2021/03/13 09:45:23;;;;;;;15.10;11.45;;;;;;;6.44;70.40;100349.42;1717509;82;21145;-45
2021/03/13 09:48:02;;;;;;;17.37;13.58;;;;;;;6.48;70.36;100354.14;1713687;82;21154;-45
2021/03/13 09:50:34;;;;;;;13.48;10.82;;;;;;;6.53;70.28;100354.80;1720573;82;21190;-46
2021/03/13 09:53:06;;;;;;;15.32;12.28;;;;;;;6.56;70.24;100354.66;1714738;82;21137;-43
2021/03/13 09:55:34;;;;;;;14.33;11.78;;;;;;;6.59;70.12;100357.17;1711832;82;21175;-45
2021/03/13 09:58:03;;;;;;;14.00;12.05;;;;;;;6.62;69.96;100357.50;1718608;82;21141;-42
2021/03/13 10:00:42;;;;;;;17.90;13.30;;;;;;;6.63;69.84;100349.97;1712815;82;21181;-43
2021/03/13 10:03:15;;;;;;;14.03;11.70;;;;;;;6.64;69.78;100350.34;1715378;82;21155;-44
2021/03/13 10:05:54;;;;;;;14.65;12.37;;;;;;;6.65;69.84;100346.76;1720621;82;21612;-42
2021/03/13 10:08:24;;;;;;;20.75;11.65;;;;;;;6.69;69.92;100353.19;1714598;82;21174;-47
2021/03/13 10:10:52;;;;;;;13.88;12.15;;;;;;;6.74;69.87;100347.69;1716142;82;21146;-47
2021/03/13 10:13:22;;;;;;;13.32;10.93;;;;;;;6.79;69.69;100344.36;1712373;82;21651;-42
2021/03/13 10:15:50;;;;;;;16.97;13.15;;;;;;;6.86;69.61;100354.23;1715295;82;21166;-44
2021/03/13 10:18:19;;;;;;;17.40;13.90;;;;;;;6.89;69.50;100350.11;1727546;81;21109;-43
2021/03/13 10:20:53;;;;;;;16.32;13.48;;;;;;;6.92;69.38;100353.95;1739693;81;21502;-41
2021/03/13 10:23:36;;;;;;;16.40;13.30;;;;;;;6.98;69.16;100362.97;1744047;81;21173;-42
2021/03/13 10:26:06;;;;;;;17.02;13.95;;;;;;;7.03;68.68;100356.09;1732023;81;21136;-41
2021/03/13 10:28:36;;;;;;;16.05;12.40;;;;;;;7.07;68.33;100356.36;1742765;81;21145;-43
2021/03/13 10:31:10;;;;;;;17.70;14.10;;;;;;;7.07;68.23;100357.22;1745233;81;21154;-46
2021/03/13 10:33:44;;;;;;;15.78;13.22;;;;;;;7.10;68.19;100350.91;1708248;83;21604;-41
2021/03/13 10:36:13;;;;;;;16.90;13.98;;;;;;;7.12;68.26;100349.06;1741788;81;21138;-43
2021/03/13 10:38:42;;;;;;;15.80;13.45;;;;;;;7.14;68.38;100348.05;1741911;80;21157;-41
2021/03/13 10:41:14;;;;;;;16.60;13.22;;;;;;;7.15;68.13;100352.89;1744967;81;21165;-45
2021/03/13 10:43:44;;;;;;;17.73;13.88;;;;;;;7.13;68.16;100349.44;1738414;80;21117;-43
2021/03/13 10:46:23;;;;;;;19.32;15.95;;;;;;;7.12;68.01;100345.94;1704520;82;21146;-43
2021/03/13 10:48:57;;;;;;;18.52;14.55;;;;;;;7.12;67.61;100343.28;1679342;84;21158;-45
2021/03/13 10:51:32;;;;;;;19.27;14.95;;;;;;;7.13;67.41;100335.73;1741852;80;21118;-44
2021/03/13 10:54:00;;;;;;;19.27;14.80;;;;;;;7.12;67.15;100339.78;1738257;81;21134;-44
2021/03/13 10:56:42;;;;;;;18.20;13.85;;;;;;;7.10;67.43;100346.46;1740158;81;21130;-43
2021/03/13 10:59:10;;;;;;;18.90;16.05;;;;;;;7.10;67.43;100337.66;1743753;81;21586;-44
2021/03/13 11:01:45;;;;;;;19.23;15.40;;;;;;;7.13;67.62;100337.50;1737287;81;21488;-45
2021/03/13 11:04:13;;;;;;;17.37;14.25;;;;;;;7.16;67.69;100336.06;1742172;81;21114;-44
2021/03/13 11:06:41;;;;;;;19.15;15.43;;;;;;;7.21;67.86;100329.22;1736314;81;21150;-43
2021/03/13 11:09:11;;;;;;;20.52;15.88;;;;;;;7.25;67.87;100326.33;1742215;81;21150;-42
2021/03/13 11:11:39;;;;;;;22.58;17.85;;;;;;;7.26;67.71;100320.11;1739366;81;21146;-43
2021/03/13 11:14:09;;;;;;;20.43;14.43;;;;;;;7.28;67.66;100320.91;1738903;81;21266;-43
2021/03/13 11:16:37;;;;;;;18.42;14.98;;;;;;;7.31;67.09;100323.88;1741877;81;21284;-42
2021/03/13 11:19:06;;;;;;;19.52;14.35;;;;;;;7.30;67.15;100315.03;1742223;81;21187;-44
2021/03/13 11:21:35;;;;;;;19.15;14.43;;;;;;;7.31;67.01;100319.90;1747416;81;21141;-44
2021/03/13 11:24:05;;;;;;;18.10;14.68;;;;;;;7.35;67.23;100321.45;1744221;80;21687;-45
2021/03/13 11:26:33;;;;;;;17.48;13.35;;;;;;;7.39;67.08;100324.84;1754648;81;21149;-45
2021/03/13 11:29:01;;;;;;;16.62;13.55;;;;;;;7.43;67.00;100317.11;1748965;80;21448;-44
2021/03/13 11:31:29;;;;;;;15.03;12.65;;;;;;;7.46;66.88;100313.86;1742568;81;21134;-43
2021/03/13 11:33:57;;;;;;;17.73;14.47;;;;;;;7.49;66.61;100316.36;1746818;81;21629;-45
2021/03/13 11:36:26;;;;;;;16.95;13.95;;;;;;;7.53;66.31;100310.42;1750276;81;21114;-44
2021/03/13 11:38:54;;;;;;;17.57;13.60;;;;;;;7.55;66.39;100309.41;1748253;80;21143;-45
2021/03/13 11:41:22;;;;;;;18.42;14.65;;;;;;;7.60;66.30;100301.23;1748717;81;21134;-43
2021/03/13 11:43:52;;;;;;;14.30;12.68;;;;;;;7.65;65.99;100304.98;1747671;80;21175;-47